Danville Center, Vermont
Current Conditions -  °F | °C
As of 9:35 AM on Saturday 22 Nov 2014 (Local Time) from KCDA Reporting Station
Clear Clear  
Wind Chill: 13°   Ceiling: Unl
Heat Index: 22°   Visibility: 10mi
Dew Point: 13°   Wind: 8mph
Humidity: 68%   Direction: 130°SE
Pressure: 30.18"   Gusts: NA
Location:  44.4387°N, 72.1135°W
Report Text: KCDA 221435Z AUTO 13007KT 10SM CLR M06/M11 A3018 RMK AO2 T10561106
Loading
Personal Weather Stations






























Interactive Weather Map New forecast layout! Learn more

10-Day Weather Forecast

Advertisements
Track Severe Weather on mobile